createdAt,value
2018-07-31T00:00:23.178Z,89.00
2018-07-31T00:04:26.405Z,90.10
2018-07-31T00:08:29.717Z,90.30
2018-07-31T00:12:32.943Z,90.10
2018-07-31T00:16:36.199Z,90.40
2018-07-31T00:20:39.449Z,90.80
2018-07-31T00:24:42.693Z,91.60
2018-07-31T00:28:46.673Z,91.70
2018-07-31T00:41:43.249Z,90.70
2018-07-31T00:45:46.531Z,90.80
2018-07-31T00:49:49.753Z,91.00
2018-07-31T00:53:52.972Z,91.20
2018-07-31T00:57:56.351Z,91.50
2018-07-31T01:01:59.588Z,91.60
2018-07-31T01:06:02.858Z,91.50
2018-07-31T01:10:06.088Z,91.50
2018-07-31T01:14:09.982Z,91.80
2018-07-31T01:18:13.200Z,92.10
2018-07-31T01:22:16.476Z,92.10
2018-07-31T01:26:19.707Z,92.40
2018-07-31T01:30:22.994Z,92.50
2018-07-31T01:34:26.237Z,92.40
2018-07-31T01:38:29.489Z,92.30
2018-07-31T01:42:32.749Z,92.60
2018-07-31T01:46:36.038Z,92.60
2018-07-31T01:50:39.312Z,92.70
2018-07-31T01:54:42.993Z,92.80
2018-07-31T01:58:46.241Z,93.00
2018-07-31T02:02:49.465Z,93.00
2018-07-31T02:06:53.644Z,93.20
2018-07-31T02:10:56.874Z,93.10
2018-07-31T02:15:00.133Z,93.30
2018-07-31T02:19:03.381Z,93.30
2018-07-31T02:23:06.611Z,93.50
2018-07-31T02:27:09.933Z,93.50
2018-07-31T02:31:13.189Z,93.50
2018-07-31T02:35:16.533Z,93.40
2018-07-31T02:43:45.925Z,93.60
2018-07-31T02:47:49.181Z,93.70
2018-07-31T02:51:52.461Z,94.10
2018-07-31T02:55:55.783Z,94.30
2018-07-31T03:00:08.573Z,94.30
2018-07-31T03:04:11.805Z,94.40
2018-07-31T03:08:15.720Z,94.60
2018-07-31T03:12:18.878Z,94.60
2018-07-31T03:16:22.124Z,94.90
2018-07-31T03:20:26.301Z,94.60
2018-07-31T03:24:29.565Z,94.70
2018-07-31T03:28:32.813Z,94.90
2018-07-31T03:32:37.253Z,94.90
2018-07-31T03:36:40.562Z,95.10
2018-07-31T03:40:43.826Z,95.10
2018-07-31T03:53:41.614Z,94.60
2018-07-31T03:57:44.868Z,94.50
2018-07-31T04:01:48.124Z,94.90
2018-07-31T04:10:17.674Z,95.00
2018-07-31T04:14:24.050Z,95.10
2018-07-31T04:18:27.335Z,95.30
2018-07-31T04:22:30.597Z,94.70
2018-07-31T04:26:33.871Z,95.10
2018-07-31T04:30:37.108Z,95.40
2018-07-31T04:34:40.360Z,95.30
2018-07-31T04:38:43.686Z,95.40
2018-07-31T04:42:46.928Z,95.70
2018-07-31T04:46:50.179Z,95.40
2018-07-31T04:50:53.426Z,95.20
2018-07-31T04:54:56.755Z,95.10
2018-07-31T04:59:00.005Z,94.90
2018-07-31T05:03:03.280Z,94.80
2018-07-31T05:07:06.601Z,94.70
2018-07-31T05:11:09.898Z,94.60
2018-07-31T05:15:13.200Z,94.70
2018-07-31T05:19:16.454Z,94.80
2018-07-31T05:23:19.764Z,94.80
2018-07-31T05:27:23.044Z,94.70
2018-07-31T05:31:26.296Z,94.80
2018-07-31T05:35:29.610Z,94.90
2018-07-31T05:39:32.957Z,94.70
2018-07-31T05:43:36.181Z,94.60
2018-07-31T05:47:39.459Z,94.50
2018-07-31T05:51:42.743Z,94.50
2018-07-31T05:55:46.050Z,94.10
2018-07-31T05:59:49.306Z,93.70
2018-07-31T06:03:52.567Z,93.30
2018-07-31T06:07:55.806Z,92.80
2018-07-31T06:11:59.126Z,92.30
2018-07-31T06:16:02.393Z,91.70
2018-07-31T06:20:10.984Z,90.90
2018-07-31T06:24:14.234Z,90.80
2018-07-31T06:28:17.474Z,90.50
2018-07-31T06:32:20.819Z,90.10
2018-07-31T06:36:24.156Z,90.40
2018-07-31T06:40:27.472Z,90.10
2018-07-31T06:44:30.694Z,90.40
2018-07-31T06:48:33.947Z,90.40
2018-07-31T06:52:37.194Z,90.50
2018-07-31T06:56:40.461Z,90.40
2018-07-31T07:00:43.706Z,90.20
2018-07-31T07:04:46.984Z,90.00
2018-07-31T07:12:53.218Z,88.10
2018-07-31T07:16:56.462Z,86.50
2018-07-31T07:20:59.720Z,86.80
2018-07-31T07:25:02.993Z,85.90
2018-07-31T07:29:06.280Z,85.60
2018-07-31T07:33:09.575Z,85.00
2018-07-31T07:37:12.863Z,83.20
2018-07-31T07:41:16.115Z,84.60
2018-07-31T07:45:19.452Z,83.90
2018-07-31T07:49:22.751Z,83.40
2018-07-31T07:53:25.958Z,83.30
2018-07-31T07:57:29.245Z,82.80
2018-07-31T08:01:32.530Z,81.70
2018-07-31T08:05:35.796Z,80.30
2018-07-31T08:09:39.055Z,80.70
2018-07-31T08:13:42.294Z,78.30
2018-07-31T08:17:45.586Z,75.30
2018-07-31T08:21:48.843Z,76.80
2018-07-31T08:25:52.087Z,74.70
2018-07-31T08:29:55.358Z,72.80
2018-07-31T08:33:58.679Z,71.30
2018-07-31T08:38:01.934Z,71.30
2018-07-31T08:42:05.249Z,69.70
2018-07-31T08:46:08.524Z,71.70
2018-07-31T08:50:11.795Z,71.40
2018-07-31T08:54:15.089Z,68.90
2018-07-31T08:58:18.367Z,68.60
2018-07-31T09:02:21.645Z,68.40
2018-07-31T09:06:24.916Z,68.10
2018-07-31T09:10:28.234Z,65.90
2018-07-31T09:14:31.483Z,63.80
2018-07-31T09:18:35.151Z,61.70
2018-07-31T09:22:38.409Z,58.40
2018-07-31T09:26:41.674Z,55.60
2018-07-31T09:30:50.474Z,55.10
2018-07-31T09:34:53.625Z,53.80
2018-07-31T09:38:56.905Z,53.20
2018-07-31T09:43:00.189Z,54.90
2018-07-31T09:47:03.542Z,54.80
2018-07-31T09:51:06.842Z,50.30
2018-07-31T09:55:10.162Z,48.10
2018-07-31T09:59:13.492Z,48.40
2018-07-31T10:03:16.729Z,47.80
2018-07-31T10:07:19.987Z,48.20
2018-07-31T10:11:23.255Z,47.70
2018-07-31T10:15:26.502Z,46.30
2018-07-31T10:19:29.763Z,47.30
2018-07-31T10:23:33.029Z,46.10
2018-07-31T10:27:36.336Z,44.30
2018-07-31T10:31:39.582Z,44.90
2018-07-31T10:35:42.838Z,44.30
2018-07-31T10:39:46.110Z,44.00
2018-07-31T10:43:49.426Z,44.40
2018-07-31T10:47:52.669Z,44.50
2018-07-31T10:51:55.927Z,43.30
2018-07-31T10:55:59.230Z,42.90
2018-07-31T11:00:02.555Z,43.30
2018-07-31T11:04:05.994Z,41.80
2018-07-31T11:08:09.165Z,41.70
2018-07-31T11:12:12.417Z,41.60
2018-07-31T11:16:15.661Z,42.60
2018-07-31T11:20:18.900Z,41.50
2018-07-31T11:24:22.148Z,41.90
2018-07-31T11:28:25.388Z,43.40
2018-07-31T11:32:28.641Z,42.20
2018-07-31T11:36:31.981Z,41.30
2018-07-31T11:40:35.202Z,39.20
2018-07-31T11:44:38.442Z,38.80
2018-07-31T11:48:41.738Z,40.10
2018-07-31T11:52:44.977Z,40.50
2018-07-31T11:56:48.256Z,39.20
2018-07-31T12:00:51.525Z,39.20
2018-07-31T12:04:54.753Z,40.40
2018-07-31T12:08:58.040Z,38.50
2018-07-31T12:13:01.270Z,40.10
2018-07-31T12:17:04.537Z,38.90
2018-07-31T12:21:07.801Z,37.50
2018-07-31T12:25:11.070Z,37.50
2018-07-31T12:29:14.374Z,37.80
2018-07-31T12:38:04.059Z,38.60
2018-07-31T12:42:07.351Z,38.90
2018-07-31T12:46:10.585Z,38.70
2018-07-31T12:50:13.911Z,39.80
2018-07-31T12:54:17.128Z,39.70
2018-07-31T12:58:20.409Z,37.90
2018-07-31T13:02:23.734Z,38.50
2018-07-31T13:06:26.972Z,39.40
2018-07-31T13:10:30.245Z,38.00
2018-07-31T13:14:33.524Z,38.00
2018-07-31T13:18:36.812Z,37.60
2018-07-31T13:22:40.104Z,40.20
2018-07-31T13:26:43.379Z,42.90
2018-07-31T13:30:46.623Z,44.90
2018-07-31T13:34:49.849Z,44.40
2018-07-31T13:38:53.229Z,43.40
2018-07-31T13:42:56.465Z,45.60
2018-07-31T13:46:59.772Z,46.80
2018-07-31T13:51:03.017Z,46.40
2018-07-31T13:55:06.394Z,47.70
2018-07-31T13:59:09.603Z,46.50
2018-07-31T14:03:12.844Z,44.10
2018-07-31T14:07:16.101Z,44.80
2018-07-31T14:11:20.172Z,43.30
2018-07-31T14:15:23.419Z,40.50
2018-07-31T14:19:26.679Z,39.30
2018-07-31T14:23:29.940Z,42.00
2018-07-31T14:27:33.185Z,45.10
2018-07-31T14:31:37.318Z,47.60
2018-07-31T14:35:40.572Z,47.00
2018-07-31T14:39:43.817Z,46.00
2018-07-31T14:56:19.333Z,42.40
2018-07-31T15:04:47.993Z,39.90
2018-07-31T15:08:51.240Z,39.00
2018-07-31T15:12:54.464Z,37.40
2018-07-31T15:16:57.728Z,36.90
2018-07-31T15:21:01.076Z,37.80
2018-07-31T15:25:04.638Z,38.50
2018-07-31T15:29:07.885Z,38.80
2018-07-31T15:33:11.161Z,38.90
2018-07-31T15:37:14.405Z,38.70
2018-07-31T15:41:17.656Z,38.40
2018-07-31T15:45:20.953Z,37.80
2018-07-31T15:49:24.196Z,37.20
2018-07-31T15:53:27.445Z,39.70
2018-07-31T15:57:30.661Z,41.60
2018-07-31T16:01:33.908Z,42.70
2018-07-31T16:05:37.871Z,43.50
2018-07-31T16:09:42.164Z,44.20
2018-07-31T16:13:45.394Z,43.60
2018-07-31T16:17:48.684Z,44.00
2018-07-31T16:21:51.969Z,44.10
2018-07-31T16:25:55.409Z,43.60
2018-07-31T16:29:58.643Z,43.60
2018-07-31T16:34:01.986Z,43.30
2018-07-31T16:38:05.153Z,42.30
2018-07-31T16:42:08.550Z,41.90
2018-07-31T16:46:11.814Z,42.00
2018-07-31T16:50:15.041Z,42.80
2018-07-31T16:54:18.262Z,43.40
2018-07-31T16:58:21.514Z,43.70
2018-07-31T17:02:24.816Z,43.50
2018-07-31T17:06:28.052Z,42.70
2018-07-31T17:10:31.328Z,41.60
2018-07-31T17:14:34.544Z,40.70
2018-07-31T17:18:37.796Z,40.20
2018-07-31T17:22:41.101Z,39.30
2018-07-31T17:26:44.370Z,38.30
2018-07-31T17:30:47.593Z,38.20
2018-07-31T17:34:50.922Z,38.20
2018-07-31T17:38:54.453Z,38.70
2018-07-31T17:42:57.685Z,39.10
2018-07-31T17:47:00.937Z,38.30
2018-07-31T17:51:04.255Z,39.40
2018-07-31T17:55:07.817Z,40.70
2018-07-31T17:59:11.061Z,42.20
2018-07-31T18:03:14.280Z,42.80
2018-07-31T18:07:17.896Z,43.00
2018-07-31T18:11:21.421Z,42.30
2018-07-31T18:15:24.653Z,42.70
2018-07-31T18:19:27.880Z,42.50
2018-07-31T18:23:31.165Z,42.50
2018-07-31T18:27:34.405Z,43.10
2018-07-31T18:31:38.069Z,43.50
2018-07-31T18:35:41.985Z,44.20
2018-07-31T18:39:45.224Z,45.10
2018-07-31T18:43:48.876Z,45.50
2018-07-31T18:47:52.429Z,45.90
2018-07-31T18:51:55.682Z,45.70
2018-07-31T18:55:59.041Z,45.60
2018-07-31T19:00:02.423Z,46.00
2018-07-31T19:04:06.053Z,46.70
2018-07-31T19:08:09.314Z,47.30
2018-07-31T19:12:12.581Z,47.90
2018-07-31T19:16:15.837Z,48.90
2018-07-31T19:20:19.216Z,50.20
2018-07-31T19:24:22.665Z,51.00
2018-07-31T19:28:26.083Z,52.10
2018-07-31T19:32:29.666Z,52.90
2018-07-31T19:36:32.973Z,53.80
2018-07-31T19:40:36.380Z,54.80
2018-07-31T19:44:39.847Z,55.80
2018-07-31T19:48:43.220Z,56.50
2018-07-31T19:52:53.132Z,57.20
2018-07-31T19:56:59.511Z,57.90
2018-07-31T20:01:03.459Z,58.40
2018-07-31T20:05:07.486Z,59.40
2018-07-31T20:09:15.305Z,59.70
2018-07-31T20:13:18.774Z,60.00
2018-07-31T20:17:22.014Z,60.70
2018-07-31T20:21:27.558Z,61.40
2018-07-31T20:25:32.028Z,61.90
2018-07-31T20:29:35.877Z,62.40
2018-07-31T20:33:39.173Z,62.90
2018-07-31T20:37:46.492Z,63.60
2018-07-31T20:41:52.005Z,64.50
2018-07-31T20:45:58.305Z,64.40
2018-07-31T20:50:03.340Z,64.80
2018-07-31T20:54:08.520Z,65.20
2018-07-31T20:58:14.428Z,65.50
2018-07-31T21:02:20.839Z,65.70
